KHYA/HYA METAR and TAF weather

Enter ICAO airport designator
Station Type Date Time Source
KHYA METAR 2019/12/13 16:56 UTC NOAA

KHYA 131656Z 13008G16KT 10SM CLR 08/03 A3041 RMK AO2 SLP299 T00830033


Station Type Date Time Source
KHYA Decoded METAR 2019/12/13 16:56 UTC NOAA

HYANNIS BARNSTABLE BOARDMN, MA, United States (KHYA) 41-40N 070-16W 22M
Dec 13, 2019 - 11:56 AM EST / 2019.12.13 1656 UTC
Wind: from the SE (130 degrees) at 9 MPH (8 KT) gusting to 18 MPH (16 KT):0
Visibility: 10 mile(s):0
Sky conditions: clear
Temperature: 46.9 F (8.3 C)
Dew Point: 37.9 F (3.3 C)
Relative Humidity: 70%
Pressure (altimeter): 30.41 in. Hg (1029 hPa)
ob: KHYA 131656Z 13008G16KT 10SM CLR 08/03 A3041 RMK AO2 SLP299 T00830033
cycle: 17

Station Type Date Time Source
KHYA TAF 2019/12/13 12:42 UTC NOAA

TAF KHYA 131139Z 1312/1412 15006KT P6SM BKN150
FM140000 12011G20KT P6SM VCSH OVC040
FM140100 12011G21KT P6SM VCSH OVC030
FM140300 12012G22KT P6SM VCSH OVC020 WS020/13045KT
FM140400 12012G23KT 5SM -RA BR OVC015 WS020/13050KT
FM141100 14016G26KT 1 1/2SM +RA BR OVC008 WS020/15055KT

Example: see airport list